Time;durP1;ratioP1;P1;durP2;ratioP2;P2;SDS_P1;SDS_P2;PMS_P1;PMS_P2;Temp;Humidity;BMP_temperature;BMP_pressure;BME280_temperature;BME280_humidity;BME280_pressure;Samples;Min_cycle;Max_cycle;Signal;HPM_P1;HPM_P2
2021/04/07 00:00:17;;;;;;;12.60;7.22;;;;;;;0.43;75.59;99478.75;4984100;28;20518;-68
2021/04/07 00:02:42;;;;;;;13.57;6.32;;;;;;;0.40;75.64;99486.59;4991726;28;20493;-70
2021/04/07 00:05:30;;;;;;;10.00;7.00;;;;;;;0.79;75.43;99486.94;4995086;28;20039;-43
2021/04/07 00:07:55;;;;;;;13.43;5.78;;;;;;;1.03;73.80;99477.91;4962986;28;20491;-42
2021/04/07 00:10:22;;;;;;;11.35;6.22;;;;;;;1.44;72.11;99487.63;4985454;28;20074;-43
2021/04/07 00:12:48;;;;;;;13.70;5.97;;;;;;;1.65;71.55;99493.31;4987331;28;20515;-42
2021/04/07 00:15:17;;;;;;;15.07;6.63;;;;;;;2.09;68.58;99502.03;4983900;28;20054;-43
2021/04/07 00:17:42;;;;;;;7.72;6.45;;;;;;;2.11;69.41;99502.88;4966111;28;20031;-42
2021/04/07 00:20:14;;;;;;;8.93;6.28;;;;;;;2.34;68.18;99502.44;4985993;28;20038;-43
2021/04/07 00:22:39;;;;;;;9.57;6.47;;;;;;;2.53;66.86;99505.50;4984619;28;20125;-68
2021/04/07 00:25:05;;;;;;;12.52;6.68;;;;;;;2.07;68.15;99498.63;4991283;28;20121;-69
2021/04/07 00:27:32;;;;;;;12.18;6.88;;;;;;;1.51;69.41;99503.97;4991576;28;20405;-69
2021/04/07 00:29:57;;;;;;;10.13;6.53;;;;;;;1.11;71.70;99509.81;4986513;28;20528;-68
2021/04/07 00:32:23;;;;;;;9.10;6.72;;;;;;;0.95;71.94;99513.50;4973278;28;20063;-68
2021/04/07 00:34:48;;;;;;;10.90;5.43;;;;;;;0.86;72.73;99509.28;4993886;28;20034;-68
2021/04/07 00:37:14;;;;;;;13.15;5.85;;;;;;;0.83;72.84;99507.59;4992446;28;20125;-68
2021/04/07 00:39:40;;;;;;;9.18;5.15;;;;;;;0.73;73.17;99512.94;4999014;28;20038;-68
2021/04/07 00:42:07;;;;;;;9.43;5.35;;;;;;;0.59;73.32;99520.91;4986508;28;20043;-68
2021/04/07 00:44:32;;;;;;;7.10;4.45;;;;;;;0.51;73.63;99513.22;4992293;28;20049;-68
2021/04/07 00:46:58;;;;;;;8.73;4.88;;;;;;;0.43;72.96;99520.25;4991506;28;20034;-68
2021/04/07 00:49:24;;;;;;;10.18;5.00;;;;;;;0.39;73.17;99519.44;4991953;28;20560;-68
2021/04/07 00:51:51;;;;;;;7.63;4.65;;;;;;;0.38;73.33;99522.91;4992559;28;20125;-69
2021/04/07 00:54:17;;;;;;;6.13;4.55;;;;;;;0.39;73.84;99516.84;4990045;28;20049;-68
2021/04/07 00:56:44;;;;;;;8.80;4.32;;;;;;;0.37;74.60;99520.31;4992636;28;20034;-68
2021/04/07 00:59:11;;;;;;;10.07;5.53;;;;;;;0.35;74.32;99517.75;4991662;28;20405;-68
2021/04/07 01:01:36;;;;;;;8.85;5.32;;;;;;;0.33;73.56;99514.31;4967575;28;20030;-68
2021/04/07 01:04:02;;;;;;;10.00;5.00;;;;;;;0.29;74.49;99512.63;4992071;28;20690;-68
2021/04/07 01:06:28;;;;;;;8.48;4.40;;;;;;;0.30;74.33;99516.09;4974575;28;20045;-68
2021/04/07 01:08:54;;;;;;;10.63;5.50;;;;;;;0.26;73.99;99522.19;4992119;28;20103;-68
2021/04/07 01:11:19;;;;;;;5.75;4.65;;;;;;;0.19;74.60;99517.06;4992266;28;20490;-68
2021/04/07 01:13:45;;;;;;;7.72;5.85;;;;;;;0.20;74.94;99523.13;4991542;28;20049;-69
2021/04/07 01:16:10;;;;;;;14.13;5.18;;;;;;;0.16;74.98;99524.88;4974519;28;20034;-68
2021/04/07 01:18:35;;;;;;;9.02;5.57;;;;;;;0.10;75.71;99522.38;4991452;28;20552;-69
2021/04/07 01:21:01;;;;;;;9.40;4.80;;;;;;;0.15;75.00;99530.09;4991805;28;20481;-69
2021/04/07 01:23:27;;;;;;;10.20;5.68;;;;;;;0.13;74.57;99532.69;4991810;28;20062;-69
2021/04/07 01:25:52;;;;;;;8.35;6.97;;;;;;;0.19;75.54;99536.94;4990583;28;20042;-68
2021/04/07 01:28:18;;;;;;;10.45;6.32;;;;;;;0.20;75.08;99533.50;4998746;28;20099;-68
2021/04/07 01:30:47;;;;;;;13.52;6.40;;;;;;;0.16;74.46;99532.66;4997599;28;20050;-69
2021/04/07 01:33:23;;;;;;;11.38;6.70;;;;;;;0.17;74.29;99536.09;4990544;28;20470;-68
2021/04/07 01:35:49;;;;;;;9.13;6.07;;;;;;;0.19;74.53;99532.63;4991515;28;20489;-68
2021/04/07 01:38:15;;;;;;;13.05;7.32;;;;;;;0.18;74.84;99535.25;4990921;28;20034;-68
2021/04/07 01:40:44;;;;;;;8.60;6.57;;;;;;;0.16;75.17;99537.84;4973248;28;20401;-68
2021/04/07 01:43:10;;;;;;;10.20;6.65;;;;;;;0.21;75.11;99540.38;5005266;28;20037;-69
2021/04/07 01:45:36;;;;;;;12.25;6.65;;;;;;;0.26;74.62;99542.94;5007444;28;20461;-69
2021/04/07 01:48:03;;;;;;;11.15;7.82;;;;;;;0.30;74.32;99526.47;4990812;28;20065;-69
2021/04/07 01:50:28;;;;;;;19.35;8.98;;;;;;;0.31;74.31;99533.38;4990756;28;20034;-68
2021/04/07 01:52:54;;;;;;;13.07;6.78;;;;;;;0.39;74.96;99534.13;4991053;28;20129;-69
2021/04/07 01:55:19;;;;;;;11.98;7.10;;;;;;;0.37;74.88;99526.38;4976911;28;20557;-69
2021/04/07 01:57:44;;;;;;;14.73;8.35;;;;;;;0.32;75.31;99532.47;4973520;28;20029;-69
2021/04/07 02:00:11;;;;;;;14.27;8.00;;;;;;;0.35;75.01;99532.47;4990075;28;20129;-68
2021/04/07 02:02:36;;;;;;;23.70;8.63;;;;;;;0.37;75.34;99523.78;4985254;28;20115;-67
2021/04/07 02:05:05;;;;;;;12.05;8.00;;;;;;;0.40;74.79;99526.34;4971490;28;20129;-67
2021/04/07 02:07:30;;;;;;;14.13;8.82;;;;;;;0.46;75.43;99529.72;4956366;28;20072;-67
2021/04/07 02:09:55;;;;;;;11.07;8.35;;;;;;;0.47;74.91;99527.13;4975613;28;20121;-67
2021/04/07 02:12:20;;;;;;;14.70;9.13;;;;;;;0.48;74.56;99522.78;4972464;28;20094;-68
2021/04/07 02:14:46;;;;;;;11.98;8.07;;;;;;;0.44;74.82;99521.94;4971344;28;20045;-68
2021/04/07 02:17:11;;;;;;;11.02;7.93;;;;;;;0.49;74.86;99521.91;4971597;28;20039;-69
2021/04/07 02:19:37;;;;;;;16.55;9.73;;;;;;;0.47;74.68;99521.94;4971075;28;20027;-68
2021/04/07 02:22:06;;;;;;;9.95;6.32;;;;;;;0.52;74.73;99522.72;4971190;28;20405;-69
2021/04/07 02:24:32;;;;;;;16.45;9.00;;;;;;;0.50;75.04;99527.06;4970789;28;20046;-68
2021/04/07 02:27:00;;;;;;;21.40;7.93;;;;;;;0.50;75.51;99528.81;4971123;28;20398;-68
2021/04/07 02:29:25;;;;;;;11.85;7.53;;;;;;;0.53;75.65;99529.63;4970680;28;20037;-68
2021/04/07 02:31:50;;;;;;;13.70;7.25;;;;;;;0.57;76.09;99536.50;4999903;28;20441;-68
2021/04/07 02:34:16;;;;;;;13.32;8.65;;;;;;;0.57;75.51;99541.69;4995688;28;20394;-68
2021/04/07 02:36:41;;;;;;;21.95;7.70;;;;;;;0.52;76.59;99545.22;4971121;28;20037;-67
2021/04/07 02:39:07;;;;;;;18.50;7.05;;;;;;;0.43;77.35;99541.84;4970759;28;20027;-67
2021/04/07 02:41:32;;;;;;;21.25;8.60;;;;;;;0.39;78.34;99534.13;4970781;28;20045;-67
2021/04/07 02:43:58;;;;;;;14.48;8.27;;;;;;;0.31;78.10;99531.63;4970921;28;20031;-67
2021/04/07 02:46:23;;;;;;;14.15;6.15;;;;;;;0.27;77.32;99526.47;4971368;28;20101;-67
2021/04/07 02:48:48;;;;;;;12.73;8.15;;;;;;;0.16;78.11;99540.44;4970697;28;20054;-67
2021/04/07 02:51:14;;;;;;;17.63;9.57;;;;;;;0.13;79.20;99537.88;4990057;28;20125;-68
2021/04/07 02:53:39;;;;;;;9.52;5.47;;;;;;;0.09;79.26;99530.16;4990124;28;20058;-67
2021/04/07 02:56:05;;;;;;;14.05;6.40;;;;;;;0.04;80.50;99531.94;5007471;28;20034;-67
2021/04/07 02:58:30;;;;;;;13.20;5.15;;;;;;;0.04;80.16;99534.53;4990200;28;20511;-67
2021/04/07 03:00:55;;;;;;;6.70;4.68;;;;;;;-0.03;79.62;99531.13;4990436;28;20122;-67
2021/04/07 03:03:21;;;;;;;17.52;8.20;;;;;;;-0.06;79.11;99537.19;4973183;28;20050;-68
2021/04/07 03:05:46;;;;;;;12.88;5.20;;;;;;;-0.05;79.25;99532.88;4989981;28;20034;-67
2021/04/07 03:08:11;;;;;;;7.10;4.15;;;;;;;-0.02;79.96;99540.66;4991053;28;20041;-68
2021/04/07 03:10:36;;;;;;;8.98;4.80;;;;;;;0.01;79.01;99543.19;4990578;28;20054;-68
2021/04/07 03:13:02;;;;;;;7.53;5.88;;;;;;;0.05;78.50;99542.31;4989895;28;20122;-68
2021/04/07 03:15:27;;;;;;;11.88;7.05;;;;;;;0.02;78.50;99538.88;5004417;28;20564;-68
2021/04/07 03:17:53;;;;;;;14.23;6.15;;;;;;;0.05;78.17;99537.13;4990500;28;20031;-68
2021/04/07 03:20:18;;;;;;;11.68;6.85;;;;;;;0.08;78.10;99531.88;4989898;28;20036;-68
2021/04/07 03:22:43;;;;;;;20.75;8.52;;;;;;;0.14;77.56;99538.72;4990132;28;20401;-68
2021/04/07 03:25:09;;;;;;;13.05;6.93;;;;;;;0.14;77.48;99534.41;4990101;28;20050;-68
2021/04/07 03:27:35;;;;;;;14.13;7.15;;;;;;;0.15;77.30;99533.53;5007869;28;20045;-68
2021/04/07 03:30:01;;;;;;;17.80;7.90;;;;;;;0.14;77.09;99526.63;5009001;28;20086;-68
2021/04/07 03:32:27;;;;;;;13.88;7.25;;;;;;;0.16;77.02;99535.25;5009505;28;20121;-68
2021/04/07 03:34:52;;;;;;;12.88;6.72;;;;;;;0.17;77.32;99542.16;5010401;28;20488;-68
2021/04/07 03:37:18;;;;;;;10.98;6.40;;;;;;;0.17;76.80;99549.94;5010815;28;20022;-68
2021/04/07 03:39:43;;;;;;;14.70;6.97;;;;;;;0.20;77.16;99542.13;4995748;28;20504;-68
2021/04/07 03:42:09;;;;;;;10.45;7.50;;;;;;;0.21;76.41;99541.22;4993828;28;20042;-67
2021/04/07 03:44:34;;;;;;;14.07;5.93;;;;;;;0.14;76.31;99549.09;4993914;28;20038;-68
2021/04/07 03:46:59;;;;;;;16.88;7.88;;;;;;;0.16;77.02;99547.34;4993976;28;20057;-68
2021/04/07 03:49:24;;;;;;;11.43;6.15;;;;;;;0.16;76.82;99550.81;4994028;28;20061;-68
2021/04/07 03:51:50;;;;;;;13.73;5.90;;;;;;;0.16;77.67;99552.53;4993947;28;20065;-68
2021/04/07 03:54:17;;;;;;;12.75;5.53;;;;;;;0.13;77.00;99553.44;4997059;28;20542;-68
2021/04/07 03:56:42;;;;;;;13.82;6.03;;;;;;;0.08;77.23;99544.84;5002887;28;20034;-68
2021/04/07 03:59:07;;;;;;;11.35;3.97;;;;;;;0.02;77.24;99541.44;4976483;28;20057;-69
2021/04/07 04:01:33;;;;;;;7.88;3.83;;;;;;;0.06;78.30;99544.00;4993747;28;20413;-69
2021/04/07 04:03:58;;;;;;;9.57;4.90;;;;;;;0.07;77.40;99548.28;4994743;28;20080;-69
2021/04/07 04:06:24;;;;;;;12.13;4.28;;;;;;;0.09;77.88;99545.69;4994774;28;20030;-69
2021/04/07 04:08:49;;;;;;;10.23;3.45;;;;;;;0.04;77.67;99550.06;4991664;28;20100;-69
2021/04/07 04:11:14;;;;;;;13.40;5.35;;;;;;;0.04;77.99;99552.66;4988051;28;20117;-69
2021/04/07 04:13:40;;;;;;;9.52;3.33;;;;;;;0.06;77.92;99556.97;4993550;28;20048;-69
2021/04/07 04:16:05;;;;;;;9.10;4.05;;;;;;;0.08;78.54;99554.38;4994301;28;20041;-69
2021/04/07 04:18:30;;;;;;;9.23;4.78;;;;;;;0.11;77.74;99559.50;4993984;28;20026;-69
2021/04/07 04:20:56;;;;;;;9.50;4.85;;;;;;;0.01;78.52;99563.94;4994163;28;20038;-69
2021/04/07 04:23:21;;;;;;;12.02;4.75;;;;;;;0.02;77.57;99563.03;4997284;28;20053;-69
2021/04/07 04:25:46;;;;;;;13.07;4.22;;;;;;;0.01;77.34;99563.94;4994026;28;20394;-69
2021/04/07 04:28:12;;;;;;;11.23;5.40;;;;;;;-0.01;77.68;99555.31;4992999;28;20074;-69
2021/04/07 04:30:37;;;;;;;7.25;4.88;;;;;;;0.05;78.23;99551.78;4993812;28;20035;-69
2021/04/07 04:33:03;;;;;;;10.07;4.93;;;;;;;0.06;77.27;99553.50;5004042;28;20045;-68
2021/04/07 04:35:28;;;;;;;8.77;5.22;;;;;;;0.04;77.55;99553.53;5013900;28;20034;-69
2021/04/07 04:37:54;;;;;;;17.45;5.93;;;;;;;0.07;77.54;99558.66;5005614;28;20034;-69
2021/04/07 04:40:20;;;;;;;6.32;4.63;;;;;;;0.02;77.73;99552.66;4994501;28;20038;-69
2021/04/07 04:42:47;;;;;;;13.68;4.82;;;;;;;0.03;78.33;99541.44;4991515;28;20034;-69
2021/04/07 04:45:12;;;;;;;9.65;4.43;;;;;;;0.04;78.36;99553.53;4990370;28;20121;-69
2021/04/07 04:47:38;;;;;;;9.63;3.65;;;;;;;0.07;78.29;99548.28;4973110;28;20475;-68
2021/04/07 04:50:06;;;;;;;10.73;4.15;;;;;;;0.10;78.86;99558.66;4991917;28;20034;-69
2021/04/07 04:52:31;;;;;;;6.88;3.55;;;;;;;0.13;78.90;99558.63;4993956;28;20089;-68
2021/04/07 04:54:56;;;;;;;5.38;3.80;;;;;;;0.14;79.35;99560.31;5001808;28;20041;-68
2021/04/07 04:57:22;;;;;;;5.50;3.08;;;;;;;0.16;78.55;99561.16;4996357;28;20041;-69
2021/04/07 04:59:47;;;;;;;5.32;2.85;;;;;;;0.16;79.08;99563.75;4992175;28;20026;-68
2021/04/07 05:02:12;;;;;;;5.63;2.85;;;;;;;0.19;79.26;99563.72;4992970;28;20433;-68
2021/04/07 05:04:38;;;;;;;5.20;3.72;;;;;;;0.17;78.73;99572.38;4992239;28;20425;-68
2021/04/07 05:07:04;;;;;;;5.20;3.30;;;;;;;0.16;78.59;99568.09;4991823;28;20065;-68
2021/04/07 05:09:29;;;;;;;10.07;3.83;;;;;;;0.23;78.96;99574.09;4991733;28;20036;-68
2021/04/07 05:11:55;;;;;;;6.70;3.22;;;;;;;0.25;77.87;99574.91;4992459;28;20093;-68
2021/04/07 05:14:20;;;;;;;9.82;3.53;;;;;;;0.31;78.11;99582.63;4991951;28;20093;-68
2021/04/07 05:16:46;;;;;;;7.95;3.92;;;;;;;0.33;77.66;99576.53;4991843;28;20113;-69
2021/04/07 05:19:12;;;;;;;5.65;3.55;;;;;;;0.35;76.96;99573.94;4991215;28;20497;-68
2021/04/07 05:21:37;;;;;;;7.82;3.92;;;;;;;0.36;76.66;99573.91;4991854;28;20041;-68
2021/04/07 05:24:03;;;;;;;19.05;4.65;;;;;;;0.43;76.47;99580.75;4992091;28;20121;-69
2021/04/07 05:26:28;;;;;;;15.13;5.35;;;;;;;0.49;76.40;99582.41;4992019;28;20493;-68
2021/04/07 05:28:53;;;;;;;12.07;4.28;;;;;;;0.52;76.69;99581.53;4991937;28;20031;-69
2021/04/07 05:31:19;;;;;;;10.85;4.40;;;;;;;0.51;76.13;99575.47;4992069;28;20101;-69
2021/04/07 05:33:46;;;;;;;9.73;5.40;;;;;;;0.55;75.63;99578.91;5006892;28;20044;-70
2021/04/07 05:36:14;;;;;;;10.65;5.25;;;;;;;0.54;75.52;99583.22;5010967;28;20030;-69
2021/04/07 05:38:39;;;;;;;12.57;4.85;;;;;;;0.58;75.71;99581.44;5010307;28;20041;-68
2021/04/07 05:41:06;;;;;;;6.57;4.05;;;;;;;0.61;75.62;99584.84;5011361;28;20037;-68
2021/04/07 05:43:32;;;;;;;15.57;4.70;;;;;;;0.62;74.65;99575.34;5010738;28;20048;-68
2021/04/07 05:45:58;;;;;;;16.33;5.15;;;;;;;0.67;74.80;99588.28;5011070;28;20088;-67
2021/04/07 05:48:23;;;;;;;11.63;3.42;;;;;;;0.74;74.65;99598.56;5011134;28;20038;-68
2021/04/07 05:50:51;;;;;;;11.77;3.97;;;;;;;0.75;74.47;99599.41;5010697;28;20038;-68
2021/04/07 05:53:17;;;;;;;12.18;4.20;;;;;;;0.74;74.39;99597.66;5010723;28;20117;-68
2021/04/07 05:55:48;;;;;;;24.48;5.45;;;;;;;0.74;74.20;99606.34;4996246;28;20125;-68
2021/04/07 05:58:14;;;;;;;10.43;4.85;;;;;;;0.77;74.16;99603.69;4991229;28;20456;-69
2021/04/07 06:00:40;;;;;;;18.77;4.78;;;;;;;0.75;74.47;99596.81;4991429;28;20038;-69
2021/04/07 06:03:07;;;;;;;10.25;4.63;;;;;;;0.73;73.16;99595.97;4991544;28;20027;-68
2021/04/07 06:05:35;;;;;;;14.00;4.20;;;;;;;0.76;74.30;99590.72;4991200;28;20069;-68
2021/04/07 06:08:01;;;;;;;10.50;3.67;;;;;;;0.74;75.18;99602.84;4991018;28;20035;-69
2021/04/07 06:10:28;;;;;;;20.98;6.13;;;;;;;0.72;75.38;99613.28;4990680;28;20169;-69
2021/04/07 06:12:54;;;;;;;18.80;4.47;;;;;;;0.72;75.92;99596.84;4988855;28;20118;-69
2021/04/07 06:15:20;;;;;;;11.82;3.42;;;;;;;0.69;76.10;99589.09;4953928;28;20047;-69
2021/04/07 06:17:53;;;;;;;9.93;3.70;;;;;;;0.68;75.55;99605.53;4971581;28;20034;-69
2021/04/07 06:20:21;;;;;;;15.82;4.20;;;;;;;0.59;76.09;99607.38;4970948;28;20050;-69
2021/04/07 06:22:47;;;;;;;12.35;5.50;;;;;;;0.54;75.97;99610.88;4971366;28;20465;-67
2021/04/07 06:25:13;;;;;;;10.95;4.38;;;;;;;0.53;77.02;99599.66;4971177;28;20126;-68
2021/04/07 06:27:38;;;;;;;12.23;4.45;;;;;;;0.57;77.12;99606.53;4971325;28;20038;-69
2021/04/07 06:30:04;;;;;;;10.48;4.70;;;;;;;0.57;76.75;99608.28;4970728;28;20085;-69
2021/04/07 06:32:31;;;;;;;9.48;4.30;;;;;;;0.54;75.90;99588.41;4972242;28;20061;-68
2021/04/07 06:34:56;;;;;;;22.80;5.40;;;;;;;0.50;77.76;99581.53;5010002;28;20038;-68
2021/04/07 06:37:21;;;;;;;16.15;5.50;;;;;;;0.50;77.70;99578.94;5007099;28;20022;-69
2021/04/07 06:39:48;;;;;;;31.38;13.75;;;;;;;0.48;77.41;99583.28;4992463;28;20113;-70
2021/04/07 06:42:16;;;;;;;10.52;4.10;;;;;;;0.42;77.81;99579.03;4990150;28;20103;-68
2021/04/07 06:44:42;;;;;;;20.05;4.65;;;;;;;0.39;77.59;99593.75;4989176;28;20037;-68
2021/04/07 06:47:07;;;;;;;16.88;4.35;;;;;;;0.37;78.21;99611.06;4989916;28;20350;-69
2021/04/07 06:49:33;;;;;;;9.63;3.95;;;;;;;0.40;78.57;99611.06;4989684;28;20042;-68
2021/04/07 06:52:02;;;;;;;17.95;4.15;;;;;;;0.41;77.02;99611.00;4990027;28;20457;-68
2021/04/07 06:54:28;;;;;;;14.73;5.55;;;;;;;0.40;77.64;99604.13;4985963;28;20120;-69
2021/04/07 06:56:54;;;;;;;14.15;5.72;;;;;;;0.36;76.72;99609.34;4998137;28;20040;-68
2021/04/07 06:59:20;;;;;;;12.90;5.25;;;;;;;0.37;77.40;99606.75;4990370;28;20396;-68
2021/04/07 07:01:45;;;;;;;14.25;4.07;;;;;;;0.39;77.64;99601.53;4990100;28;20041;-68
2021/04/07 07:04:10;;;;;;;19.30;6.63;;;;;;;0.42;77.87;99598.94;4993267;28;20034;-68
2021/04/07 07:06:36;;;;;;;10.32;4.50;;;;;;;0.43;77.70;99595.44;4996153;28;20030;-67
2021/04/07 07:09:12;;;;;;;12.07;5.53;;;;;;;0.51;77.25;99591.03;4989654;28;20379;-68
2021/04/07 07:11:38;;;;;;;7.95;4.30;;;;;;;0.52;76.96;99594.50;4989502;28;20034;-68
2021/04/07 07:14:04;;;;;;;8.80;4.35;;;;;;;0.54;76.82;99590.13;4972736;28;20035;-68
2021/04/07 07:16:29;;;;;;;10.65;4.70;;;;;;;0.50;76.31;99594.50;4989585;28;20053;-68
2021/04/07 07:18:54;;;;;;;14.63;6.03;;;;;;;0.42;77.51;99586.81;4989530;28;20428;-68
2021/04/07 07:21:21;;;;;;;8.68;4.43;;;;;;;0.38;77.85;99585.13;4989549;28;20062;-70
2021/04/07 07:23:48;;;;;;;12.75;5.18;;;;;;;0.34;77.45;99588.63;4989634;28;20038;-70
2021/04/07 07:26:14;;;;;;;8.13;4.82;;;;;;;0.30;77.75;99593.88;4989584;28;20038;-68
2021/04/07 07:28:50;;;;;;;12.20;4.80;;;;;;;0.32;77.68;99584.31;4989193;28;20034;-67
2021/04/07 07:31:23;;;;;;;6.93;3.85;;;;;;;0.31;77.13;99564.47;4989397;28;20490;-69
2021/04/07 07:33:49;;;;;;;8.10;3.92;;;;;;;0.34;77.09;99578.25;5005311;28;20100;-68
2021/04/07 07:36:14;;;;;;;8.82;3.38;;;;;;;0.37;76.79;99587.72;5009478;28;20105;-69
2021/04/07 07:38:45;;;;;;;10.50;4.65;;;;;;;0.33;77.56;99583.47;5008980;28;20058;-68
2021/04/07 07:41:10;;;;;;;14.65;7.07;;;;;;;0.28;78.61;99585.25;5009333;28;20034;-68
2021/04/07 07:43:37;;;;;;;9.88;5.78;;;;;;;0.27;78.39;99591.28;5008932;28;20026;-68
2021/04/07 07:46:26;;;;;;;9.82;5.07;;;;;;;0.27;78.43;99599.06;5009257;28;20051;-69
2021/04/07 07:48:52;;;;;;;6.22;3.47;;;;;;;0.22;79.22;99596.53;5009431;28;20034;-68
2021/04/07 07:51:22;;;;;;;11.15;3.88;;;;;;;0.21;79.61;99607.78;5008510;28;20038;-69
2021/04/07 07:53:50;;;;;;;10.10;4.40;;;;;;;0.26;78.68;99612.94;5008490;28;20037;-69
2021/04/07 07:56:16;;;;;;;10.95;5.13;;;;;;;0.24;79.56;99617.25;4990348;28;20048;-67
2021/04/07 07:58:51;;;;;;;15.18;4.85;;;;;;;0.27;79.47;99612.03;4989126;28;20034;-68
2021/04/07 08:01:18;;;;;;;9.25;3.78;;;;;;;0.26;79.69;99616.38;4989258;28;20043;-68
2021/04/07 08:03:48;;;;;;;9.18;5.43;;;;;;;0.23;79.77;99616.41;4989195;28;20034;-69
2021/04/07 08:06:15;;;;;;;9.55;5.63;;;;;;;0.23;79.58;99615.56;4989247;28;20073;-69
2021/04/07 08:08:41;;;;;;;10.20;3.53;;;;;;;0.27;79.93;99622.41;4988931;28;20038;-68
2021/04/07 08:11:10;;;;;;;5.57;3.80;;;;;;;0.31;79.50;99630.16;4985826;28;20065;-68
2021/04/07 08:13:42;;;;;;;8.45;3.85;;;;;;;0.43;78.93;99634.34;4972591;28;20043;-68
2021/04/07 08:16:10;;;;;;;12.38;3.60;;;;;;;0.47;77.78;99640.34;4984231;28;20062;-67
2021/04/07 08:18:36;;;;;;;8.13;4.07;;;;;;;0.39;77.76;99643.03;4987005;28;20046;-68
2021/04/07 08:21:02;;;;;;;7.53;4.28;;;;;;;0.35;78.22;99652.59;4980558;28;20054;-67
2021/04/07 08:23:31;;;;;;;6.78;4.18;;;;;;;0.42;78.42;99648.22;4963809;28;20046;-67
2021/04/07 08:25:59;;;;;;;13.15;3.85;;;;;;;0.41;78.25;99643.88;4981938;28;20038;-67
2021/04/07 08:28:24;;;;;;;12.32;4.63;;;;;;;0.36;78.66;99643.91;4981537;28;20121;-68
2021/04/07 08:30:50;;;;;;;10.32;3.95;;;;;;;0.36;78.96;99649.09;4981711;28;20185;-67
2021/04/07 08:33:19;;;;;;;11.48;5.03;;;;;;;0.35;78.56;99651.72;4982907;28;20565;-67
2021/04/07 08:35:46;;;;;;;7.72;3.88;;;;;;;0.34;78.31;99644.81;4985050;28;20068;-68
2021/04/07 08:38:12;;;;;;;12.57;5.32;;;;;;;0.35;78.31;99647.41;4981556;28;20457;-68
2021/04/07 08:40:45;;;;;;;23.48;5.78;;;;;;;0.40;78.32;99642.16;4981065;28;20042;-67
2021/04/07 08:43:13;;;;;;;9.20;4.50;;;;;;;0.35;77.77;99650.00;4981666;28;20044;-67
2021/04/07 08:45:47;;;;;;;6.10;3.83;;;;;;;0.42;78.62;99659.44;4984348;28;20515;-66
2021/04/07 08:48:25;;;;;;;6.13;3.20;;;;;;;0.40;78.13;99661.19;4983168;28;20039;-66
2021/04/07 08:51:08;;;;;;;9.07;4.18;;;;;;;0.36;78.29;99659.47;4965939;28;20116;-67
2021/04/07 08:53:39;;;;;;;9.77;5.10;;;;;;;0.49;78.36;99669.72;4977405;28;20093;-65
2021/04/07 08:56:12;;;;;;;6.07;3.20;;;;;;;0.59;78.36;99672.22;4984315;28;20112;-65
2021/04/07 08:58:53;;;;;;;8.18;4.50;;;;;;;0.78;77.70;99672.00;4981823;28;20057;-66
2021/04/07 09:01:20;;;;;;;7.15;3.05;;;;;;;0.84;78.13;99672.81;4972801;28;20051;-65
2021/04/07 09:03:46;;;;;;;9.35;3.95;;;;;;;0.84;77.98;99672.81;4971236;28;20034;-65
2021/04/07 09:06:13;;;;;;;7.20;3.65;;;;;;;0.85;78.04;99676.25;4972725;28;20039;-65
2021/04/07 09:08:38;;;;;;;12.70;3.30;;;;;;;0.83;78.04;99675.41;4972543;28;20050;-65
2021/04/07 09:11:04;;;;;;;6.85;3.40;;;;;;;0.77;77.60;99683.28;4955485;28;20043;-66
2021/04/07 09:13:32;;;;;;;13.85;4.40;;;;;;;0.63;78.51;99688.59;5001622;28;20426;-69
2021/04/07 09:16:07;;;;;;;8.75;3.25;;;;;;;0.70;79.33;99687.66;4991728;28;20142;-66
2021/04/07 09:18:43;;;;;;;12.25;4.13;;;;;;;0.87;77.73;99686.63;4991951;28;20038;-67
2021/04/07 09:21:20;;;;;;;6.53;3.70;;;;;;;1.70;77.44;99684.66;4993586;28;20046;-64
2021/04/07 09:23:53;;;;;;;5.82;3.30;;;;;;;1.63;75.05;99692.56;4982380;28;20034;-64
2021/04/07 09:26:22;;;;;;;8.15;3.10;;;;;;;1.33;76.42;99683.44;4984011;28;20042;-65
2021/04/07 09:28:50;;;;;;;4.95;2.55;;;;;;;1.04;78.00;99685.53;4980813;28;20034;-69
2021/04/07 09:31:18;;;;;;;7.25;3.40;;;;;;;0.91;78.20;99694.38;4974095;28;20055;-71
2021/04/07 09:33:49;;;;;;;11.95;5.63;;;;;;;0.95;78.77;99693.44;4971841;28;20031;-70
2021/04/07 09:36:26;;;;;;;10.73;4.20;;;;;;;1.04;78.34;99706.31;4973424;28;20058;-70
2021/04/07 09:38:53;;;;;;;8.57;4.13;;;;;;;0.95;77.32;99706.41;4981491;28;20125;-69
2021/04/07 09:41:35;;;;;;;16.08;3.60;;;;;;;0.99;77.86;99705.50;4977118;28;20129;-69
2021/04/07 09:44:02;;;;;;;10.25;3.78;;;;;;;1.00;76.78;99701.16;4985458;28;20034;-69
2021/04/07 09:46:28;;;;;;;8.25;3.60;;;;;;;1.06;77.41;99709.75;4982470;28;20383;-70
2021/04/07 09:48:57;;;;;;;7.63;3.67;;;;;;;1.12;78.25;99702.78;4985550;28;20042;-70
2021/04/07 09:51:33;;;;;;;7.50;4.10;;;;;;;1.13;77.86;99712.25;4985258;28;20050;-68
2021/04/07 09:54:21;;;;;;;8.38;3.67;;;;;;;1.04;77.59;99719.28;4988406;28;20089;-68
2021/04/07 09:56:52;;;;;;;11.15;4.20;;;;;;;1.09;78.17;99715.78;4984889;28;20054;-70
2021/04/07 09:59:30;;;;;;;12.07;4.25;;;;;;;1.13;77.80;99725.25;4988980;28;20168;-69
2021/04/07 10:01:56;;;;;;;10.60;4.45;;;;;;;1.22;78.34;99738.13;4991908;28;20045;-69
2021/04/07 10:04:33;;;;;;;10.93;4.70;;;;;;;1.23;77.67;99738.13;4993012;28;20486;-69
2021/04/07 10:07:17;;;;;;;11.43;4.18;;;;;;;1.26;77.68;99745.00;4993353;28;20396;-70
2021/04/07 10:09:48;;;;;;;17.98;6.53;;;;;;;1.31;77.39;99735.44;4989443;28;20050;-69
2021/04/07 10:12:15;;;;;;;13.25;5.55;;;;;;;1.39;77.62;99738.78;4991706;28;20030;-70
2021/04/07 10:14:57;;;;;;;10.32;6.10;;;;;;;1.47;77.50;99746.47;4991404;28;20117;-69
2021/04/07 10:17:33;;;;;;;12.95;5.10;;;;;;;1.44;77.24;99749.09;4988344;28;20045;-69
2021/04/07 10:20:29;;;;;;;;;;;;;;;1.48;77.09;99756.00;4972299;28;20042;-71
2021/04/07 10:22:56;;;;;;;14.00;5.68;;;;;;;1.53;76.94;99741.22;4976830;28;19918;-71
2021/04/07 10:25:24;;;;;;;13.15;5.85;;;;;;;1.62;76.86;99761.84;4989528;28;20034;-71
2021/04/07 10:27:50;;;;;;;17.35;5.22;;;;;;;1.63;76.80;99763.59;4989958;28;20030;-70
2021/04/07 10:30:17;;;;;;;13.00;4.90;;;;;;;1.70;76.03;99756.56;4989972;28;20038;-70
2021/04/07 10:32:45;;;;;;;8.88;4.90;;;;;;;1.77;76.65;99765.97;4990328;28;20057;-71
2021/04/07 10:35:20;;;;;;;8.20;4.63;;;;;;;1.79;76.54;99777.22;4990227;28;20089;-71
2021/04/07 10:38:08;;;;;;;9.88;4.93;;;;;;;1.79;75.95;99771.16;4989786;28;20429;-70
2021/04/07 10:40:38;;;;;;;17.83;6.78;;;;;;;1.87;76.09;99792.69;4989843;28;20026;-70
2021/04/07 10:43:15;;;;;;;16.33;5.55;;;;;;;1.98;75.48;99787.38;4990173;28;20126;-69
2021/04/07 10:45:42;;;;;;;6.18;3.97;;;;;;;1.97;75.57;99794.31;4989601;28;20121;-70
2021/04/07 10:48:08;;;;;;;12.88;4.78;;;;;;;1.90;75.71;99797.88;4990364;28;20092;-70
2021/04/07 10:50:38;;;;;;;12.65;4.82;;;;;;;1.95;75.92;99803.88;4989844;28;20039;-70
2021/04/07 10:53:04;;;;;;;11.68;7.20;;;;;;;2.05;75.47;99809.81;4990097;28;20058;-71
2021/04/07 10:55:31;;;;;;;9.63;4.50;;;;;;;2.05;75.22;99808.06;4990667;28;20054;-70
2021/04/07 10:57:58;;;;;;;15.65;5.55;;;;;;;2.09;75.26;99816.66;4990212;28;20034;-70
2021/04/07 11:00:25;;;;;;;11.82;5.15;;;;;;;2.15;75.22;99820.03;4989732;28;20035;-69
2021/04/07 11:02:52;;;;;;;10.63;4.65;;;;;;;2.12;74.87;99814.03;4991918;28;20646;-72
2021/04/07 11:05:20;;;;;;;20.75;5.40;;;;;;;2.13;75.23;99810.53;4989329;28;20401;-70
2021/04/07 11:07:47;;;;;;;11.40;4.97;;;;;;;2.06;75.60;99825.38;4984153;28;20046;-70
2021/04/07 11:10:15;;;;;;;17.10;4.78;;;;;;;2.12;76.08;99825.28;4967148;28;20054;-72
2021/04/07 11:12:43;;;;;;;18.27;6.07;;;;;;;2.18;75.47;99829.53;4978766;28;20035;-71
2021/04/07 11:15:09;;;;;;;15.45;6.05;;;;;;;2.26;75.46;99832.03;4980733;28;20108;-70
2021/04/07 11:17:37;;;;;;;21.42;6.65;;;;;;;2.33;75.05;99828.47;4989490;28;20117;-71
2021/04/07 11:20:04;;;;;;;16.30;7.18;;;;;;;2.38;74.90;99833.59;4985061;28;20117;-72
2021/04/07 11:22:29;;;;;;;19.30;5.90;;;;;;;2.40;75.14;99839.63;4977686;28;20030;-70
2021/04/07 11:24:55;;;;;;;29.58;8.05;;;;;;;2.46;74.62;99836.94;4990203;28;20038;-70
2021/04/07 11:27:21;;;;;;;19.70;6.22;;;;;;;2.57;74.53;99843.69;4975667;28;20462;-71
2021/04/07 11:29:47;;;;;;;21.27;7.00;;;;;;;2.56;74.05;99846.34;4977640;28;20126;-71
2021/04/07 11:32:14;;;;;;;21.60;5.97;;;;;;;2.56;74.13;99847.19;4984270;28;20129;-71
2021/04/07 11:35:00;;;;;;;25.33;6.20;;;;;;;2.67;73.84;99847.00;4993490;28;20041;-71
2021/04/07 11:40:08;;;;;;;20.23;6.38;;;;;;;2.80;73.25;99850.25;5001271;28;20436;-71